sensor_id;sensor_type;location;lat;lon;timestamp;P1;durP1;ratioP1;P2;durP2;ratioP2
11943;SDS011;6031;50.220;10.122;2023-06-14T00:00:12;3.63;;;3.23;;
11943;SDS011;6031;50.220;10.122;2023-06-14T00:02:39;4.73;;;3.73;;
11943;SDS011;6031;50.220;10.122;2023-06-14T00:05:05;4.87;;;3.50;;
11943;SDS011;6031;50.220;10.122;2023-06-14T00:07:34;4.03;;;3.63;;
11943;SDS011;6031;50.220;10.122;2023-06-14T00:10:02;3.77;;;3.47;;
11943;SDS011;6031;50.220;10.122;2023-06-14T00:12:28;3.73;;;3.43;;
11943;SDS011;6031;50.220;10.122;2023-06-14T00:14:53;4.20;;;3.80;;
11943;SDS011;6031;50.220;10.122;2023-06-14T00:17:19;5.27;;;3.67;;
11943;SDS011;6031;50.220;10.122;2023-06-14T00:19:45;4.03;;;3.63;;
11943;SDS011;6031;50.220;10.122;2023-06-14T00:22:11;5.77;;;3.80;;
11943;SDS011;6031;50.220;10.122;2023-06-14T00:24:37;6.47;;;3.80;;
11943;SDS011;6031;50.220;10.122;2023-06-14T00:27:02;5.37;;;4.20;;
11943;SDS011;6031;50.220;10.122;2023-06-14T00:29:28;4.57;;;4.00;;
11943;SDS011;6031;50.220;10.122;2023-06-14T00:31:53;4.50;;;3.67;;
11943;SDS011;6031;50.220;10.122;2023-06-14T00:34:19;5.57;;;3.77;;
11943;SDS011;6031;50.220;10.122;2023-06-14T00:36:44;3.90;;;3.60;;
11943;SDS011;6031;50.220;10.122;2023-06-14T00:39:10;3.33;;;3.03;;
11943;SDS011;6031;50.220;10.122;2023-06-14T00:41:36;4.20;;;3.50;;
11943;SDS011;6031;50.220;10.122;2023-06-14T00:44:02;4.27;;;3.83;;
11943;SDS011;6031;50.220;10.122;2023-06-14T00:46:28;4.50;;;3.97;;
11943;SDS011;6031;50.220;10.122;2023-06-14T00:48:54;6.33;;;3.80;;
11943;SDS011;6031;50.220;10.122;2023-06-14T00:51:23;6.17;;;3.57;;
11943;SDS011;6031;50.220;10.122;2023-06-14T00:53:48;5.63;;;3.60;;
11943;SDS011;6031;50.220;10.122;2023-06-14T00:56:15;5.83;;;3.80;;
11943;SDS011;6031;50.220;10.122;2023-06-14T00:58:41;5.17;;;4.00;;
11943;SDS011;6031;50.220;10.122;2023-06-14T01:01:08;4.73;;;3.73;;
11943;SDS011;6031;50.220;10.122;2023-06-14T01:03:34;3.57;;;3.27;;
11943;SDS011;6031;50.220;10.122;2023-06-14T01:06:02;4.23;;;3.60;;
11943;SDS011;6031;50.220;10.122;2023-06-14T01:08:43;6.57;;;4.17;;
11943;SDS011;6031;50.220;10.122;2023-06-14T01:11:22;8.83;;;3.80;;
11943;SDS011;6031;50.220;10.122;2023-06-14T01:13:53;3.87;;;3.57;;
11943;SDS011;6031;50.220;10.122;2023-06-14T01:16:20;11.63;;;4.07;;
11943;SDS011;6031;50.220;10.122;2023-06-14T01:18:45;4.33;;;3.70;;
11943;SDS011;6031;50.220;10.122;2023-06-14T01:21:25;5.60;;;4.03;;
11943;SDS011;6031;50.220;10.122;2023-06-14T01:23:53;5.67;;;4.10;;
11943;SDS011;6031;50.220;10.122;2023-06-14T01:26:20;3.53;;;3.23;;
11943;SDS011;6031;50.220;10.122;2023-06-14T01:28:46;6.77;;;3.80;;
11943;SDS011;6031;50.220;10.122;2023-06-14T01:31:16;4.23;;;3.47;;
11943;SDS011;6031;50.220;10.122;2023-06-14T01:33:43;6.40;;;3.83;;
11943;SDS011;6031;50.220;10.122;2023-06-14T01:36:10;4.10;;;3.73;;
11943;SDS011;6031;50.220;10.122;2023-06-14T01:38:37;5.13;;;4.27;;
11943;SDS011;6031;50.220;10.122;2023-06-14T01:41:03;4.63;;;4.13;;
11943;SDS011;6031;50.220;10.122;2023-06-14T01:43:29;6.03;;;3.77;;
11943;SDS011;6031;50.220;10.122;2023-06-14T01:45:56;3.93;;;3.63;;
11943;SDS011;6031;50.220;10.122;2023-06-14T01:48:22;5.13;;;4.63;;
11943;SDS011;6031;50.220;10.122;2023-06-14T01:50:49;5.53;;;3.63;;
11943;SDS011;6031;50.220;10.122;2023-06-14T01:53:15;4.33;;;3.93;;
11943;SDS011;6031;50.220;10.122;2023-06-14T01:55:41;3.80;;;3.50;;
11943;SDS011;6031;50.220;10.122;2023-06-14T01:58:09;4.17;;;3.77;;
11943;SDS011;6031;50.220;10.122;2023-06-14T02:00:35;4.40;;;3.77;;
11943;SDS011;6031;50.220;10.122;2023-06-14T02:03:01;3.90;;;3.60;;
11943;SDS011;6031;50.220;10.122;2023-06-14T02:05:29;6.10;;;3.77;;
11943;SDS011;6031;50.220;10.122;2023-06-14T02:07:55;5.00;;;4.50;;
11943;SDS011;6031;50.220;10.122;2023-06-14T02:10:20;8.50;;;3.60;;
11943;SDS011;6031;50.220;10.122;2023-06-14T02:12:46;4.73;;;3.73;;
11943;SDS011;6031;50.220;10.122;2023-06-14T02:15:12;4.13;;;3.73;;
11943;SDS011;6031;50.220;10.122;2023-06-14T02:17:41;5.27;;;3.90;;
11943;SDS011;6031;50.220;10.122;2023-06-14T02:20:08;5.07;;;4.53;;
11943;SDS011;6031;50.220;10.122;2023-06-14T02:22:34;4.67;;;3.23;;
11943;SDS011;6031;50.220;10.122;2023-06-14T02:25:00;5.70;;;4.00;;
11943;SDS011;6031;50.220;10.122;2023-06-14T02:27:25;6.97;;;4.47;;
11943;SDS011;6031;50.220;10.122;2023-06-14T02:29:51;4.83;;;4.17;;
11943;SDS011;6031;50.220;10.122;2023-06-14T02:32:16;6.10;;;4.40;;
11943;SDS011;6031;50.220;10.122;2023-06-14T02:34:42;4.60;;;4.10;;
11943;SDS011;6031;50.220;10.122;2023-06-14T02:37:07;4.10;;;3.67;;
11943;SDS011;6031;50.220;10.122;2023-06-14T02:39:33;5.23;;;4.33;;
11943;SDS011;6031;50.220;10.122;2023-06-14T02:41:58;5.77;;;4.40;;
11943;SDS011;6031;50.220;10.122;2023-06-14T02:44:24;5.27;;;4.57;;
11943;SDS011;6031;50.220;10.122;2023-06-14T02:46:54;6.30;;;4.60;;
11943;SDS011;6031;50.220;10.122;2023-06-14T02:49:20;5.07;;;4.37;;
11943;SDS011;6031;50.220;10.122;2023-06-14T02:51:46;5.90;;;4.57;;
11943;SDS011;6031;50.220;10.122;2023-06-14T02:54:12;4.63;;;4.23;;
11943;SDS011;6031;50.220;10.122;2023-06-14T02:56:37;4.87;;;3.90;;
11943;SDS011;6031;50.220;10.122;2023-06-14T02:59:03;6.03;;;4.10;;
11943;SDS011;6031;50.220;10.122;2023-06-14T03:01:28;6.93;;;4.27;;
11943;SDS011;6031;50.220;10.122;2023-06-14T03:04:00;5.13;;;4.63;;
11943;SDS011;6031;50.220;10.122;2023-06-14T03:06:27;4.90;;;4.50;;
11943;SDS011;6031;50.220;10.122;2023-06-14T03:08:55;5.33;;;4.63;;
11943;SDS011;6031;50.220;10.122;2023-06-14T03:11:25;4.30;;;3.90;;
11943;SDS011;6031;50.220;10.122;2023-06-14T03:13:51;4.30;;;3.90;;
11943;SDS011;6031;50.220;10.122;2023-06-14T03:16:17;6.30;;;4.10;;
11943;SDS011;6031;50.220;10.122;2023-06-14T03:18:46;4.40;;;3.90;;
11943;SDS011;6031;50.220;10.122;2023-06-14T03:21:13;5.73;;;4.33;;
11943;SDS011;6031;50.220;10.122;2023-06-14T03:23:41;5.90;;;4.50;;
11943;SDS011;6031;50.220;10.122;2023-06-14T03:26:07;6.50;;;4.07;;
11943;SDS011;6031;50.220;10.122;2023-06-14T03:28:33;4.33;;;3.93;;
11943;SDS011;6031;50.220;10.122;2023-06-14T03:30:58;6.40;;;4.27;;
11943;SDS011;6031;50.220;10.122;2023-06-14T03:33:24;6.00;;;4.43;;
11943;SDS011;6031;50.220;10.122;2023-06-14T03:35:50;10.30;;;4.70;;
11943;SDS011;6031;50.220;10.122;2023-06-14T03:38:16;7.93;;;4.67;;
11943;SDS011;6031;50.220;10.122;2023-06-14T03:40:42;5.50;;;4.00;;
11943;SDS011;6031;50.220;10.122;2023-06-14T03:43:09;4.67;;;4.27;;
11943;SDS011;6031;50.220;10.122;2023-06-14T03:45:35;4.57;;;3.80;;
11943;SDS011;6031;50.220;10.122;2023-06-14T03:48:00;3.97;;;3.67;;
11943;SDS011;6031;50.220;10.122;2023-06-14T03:50:26;4.17;;;3.70;;
11943;SDS011;6031;50.220;10.122;2023-06-14T03:52:52;4.87;;;4.47;;
11943;SDS011;6031;50.220;10.122;2023-06-14T03:55:18;6.23;;;4.23;;
11943;SDS011;6031;50.220;10.122;2023-06-14T03:57:43;4.97;;;4.50;;
11943;SDS011;6031;50.220;10.122;2023-06-14T04:00:09;4.53;;;4.10;;
11943;SDS011;6031;50.220;10.122;2023-06-14T04:02:36;4.93;;;4.00;;
11943;SDS011;6031;50.220;10.122;2023-06-14T04:05:02;5.90;;;4.37;;
11943;SDS011;6031;50.220;10.122;2023-06-14T04:07:28;5.70;;;4.40;;
11943;SDS011;6031;50.220;10.122;2023-06-14T04:09:54;6.63;;;4.70;;
11943;SDS011;6031;50.220;10.122;2023-06-14T04:12:20;5.30;;;4.20;;
11943;SDS011;6031;50.220;10.122;2023-06-14T04:14:46;4.90;;;4.23;;
11943;SDS011;6031;50.220;10.122;2023-06-14T04:17:11;4.90;;;4.30;;
11943;SDS011;6031;50.220;10.122;2023-06-14T04:19:37;7.20;;;4.23;;
11943;SDS011;6031;50.220;10.122;2023-06-14T04:22:02;4.37;;;4.00;;
11943;SDS011;6031;50.220;10.122;2023-06-14T04:24:28;4.33;;;3.90;;
11943;SDS011;6031;50.220;10.122;2023-06-14T04:26:57;4.37;;;3.97;;
11943;SDS011;6031;50.220;10.122;2023-06-14T04:29:26;5.13;;;4.10;;
11943;SDS011;6031;50.220;10.122;2023-06-14T04:31:54;6.77;;;3.93;;
11943;SDS011;6031;50.220;10.122;2023-06-14T04:34:23;6.57;;;4.40;;
11943;SDS011;6031;50.220;10.122;2023-06-14T04:36:58;3.87;;;3.57;;
11943;SDS011;6031;50.220;10.122;2023-06-14T04:39:26;5.80;;;3.20;;
11943;SDS011;6031;50.220;10.122;2023-06-14T04:41:52;5.70;;;4.07;;
11943;SDS011;6031;50.220;10.122;2023-06-14T04:44:21;4.50;;;4.10;;
11943;SDS011;6031;50.220;10.122;2023-06-14T04:46:49;4.07;;;3.77;;
11943;SDS011;6031;50.220;10.122;2023-06-14T04:49:15;8.00;;;4.00;;
11943;SDS011;6031;50.220;10.122;2023-06-14T04:51:42;4.50;;;3.50;;
11943;SDS011;6031;50.220;10.122;2023-06-14T04:54:08;3.93;;;3.60;;
11943;SDS011;6031;50.220;10.122;2023-06-14T04:56:43;4.53;;;4.13;;
11943;SDS011;6031;50.220;10.122;2023-06-14T04:59:09;4.83;;;3.60;;
11943;SDS011;6031;50.220;10.122;2023-06-14T05:01:39;4.63;;;4.13;;
11943;SDS011;6031;50.220;10.122;2023-06-14T05:04:05;4.00;;;3.70;;
11943;SDS011;6031;50.220;10.122;2023-06-14T05:06:31;4.07;;;3.67;;
11943;SDS011;6031;50.220;10.122;2023-06-14T05:08:56;4.33;;;4.00;;
11943;SDS011;6031;50.220;10.122;2023-06-14T05:11:22;4.20;;;3.80;;
11943;SDS011;6031;50.220;10.122;2023-06-14T05:13:49;4.03;;;3.63;;
11943;SDS011;6031;50.220;10.122;2023-06-14T05:16:15;5.73;;;3.80;;
11943;SDS011;6031;50.220;10.122;2023-06-14T05:18:41;4.80;;;3.70;;
11943;SDS011;6031;50.220;10.122;2023-06-14T05:21:07;3.97;;;3.57;;
11943;SDS011;6031;50.220;10.122;2023-06-14T05:23:33;4.10;;;3.70;;
11943;SDS011;6031;50.220;10.122;2023-06-14T05:25:59;3.80;;;3.43;;
11943;SDS011;6031;50.220;10.122;2023-06-14T05:28:27;3.80;;;3.50;;
11943;SDS011;6031;50.220;10.122;2023-06-14T05:30:53;5.73;;;3.43;;
11943;SDS011;6031;50.220;10.122;2023-06-14T05:33:18;4.40;;;3.80;;
11943;SDS011;6031;50.220;10.122;2023-06-14T05:35:44;4.80;;;3.70;;
11943;SDS011;6031;50.220;10.122;2023-06-14T05:38:09;3.80;;;3.40;;
11943;SDS011;6031;50.220;10.122;2023-06-14T05:40:35;3.87;;;3.33;;
11943;SDS011;6031;50.220;10.122;2023-06-14T05:43:01;4.40;;;4.00;;
11943;SDS011;6031;50.220;10.122;2023-06-14T05:45:26;4.67;;;3.30;;
11943;SDS011;6031;50.220;10.122;2023-06-14T05:47:52;6.93;;;4.07;;
11943;SDS011;6031;50.220;10.122;2023-06-14T05:50:19;3.77;;;3.47;;
11943;SDS011;6031;50.220;10.122;2023-06-14T05:52:45;3.63;;;3.30;;
11943;SDS011;6031;50.220;10.122;2023-06-14T05:55:10;4.10;;;3.70;;
11943;SDS011;6031;50.220;10.122;2023-06-14T05:57:37;3.87;;;3.53;;
11943;SDS011;6031;50.220;10.122;2023-06-14T06:00:02;3.93;;;3.23;;
11943;SDS011;6031;50.220;10.122;2023-06-14T06:02:40;3.97;;;3.47;;
11943;SDS011;6031;50.220;10.122;2023-06-14T06:05:07;4.30;;;3.57;;
11943;SDS011;6031;50.220;10.122;2023-06-14T06:07:33;9.87;;;3.00;;
11943;SDS011;6031;50.220;10.122;2023-06-14T06:09:59;5.63;;;2.90;;
11943;SDS011;6031;50.220;10.122;2023-06-14T06:12:24;6.83;;;3.23;;
11943;SDS011;6031;50.220;10.122;2023-06-14T06:14:50;6.23;;;3.33;;
11943;SDS011;6031;50.220;10.122;2023-06-14T06:17:15;6.97;;;3.40;;
11943;SDS011;6031;50.220;10.122;2023-06-14T06:19:41;3.27;;;3.07;;
11943;SDS011;6031;50.220;10.122;2023-06-14T06:22:06;4.13;;;3.10;;
11943;SDS011;6031;50.220;10.122;2023-06-14T06:24:32;3.07;;;2.87;;
11943;SDS011;6031;50.220;10.122;2023-06-14T06:26:58;3.00;;;2.80;;
11943;SDS011;6031;50.220;10.122;2023-06-14T06:29:23;3.27;;;3.03;;
11943;SDS011;6031;50.220;10.122;2023-06-14T06:31:49;3.37;;;3.10;;
11943;SDS011;6031;50.220;10.122;2023-06-14T06:34:14;4.07;;;3.33;;
11943;SDS011;6031;50.220;10.122;2023-06-14T06:36:40;3.87;;;3.57;;
11943;SDS011;6031;50.220;10.122;2023-06-14T06:39:07;3.57;;;3.27;;
11943;SDS011;6031;50.220;10.122;2023-06-14T06:41:36;4.43;;;3.50;;
11943;SDS011;6031;50.220;10.122;2023-06-14T06:44:05;5.83;;;3.30;;
11943;SDS011;6031;50.220;10.122;2023-06-14T06:46:31;3.60;;;3.07;;
11943;SDS011;6031;50.220;10.122;2023-06-14T06:48:57;4.33;;;3.00;;
11943;SDS011;6031;50.220;10.122;2023-06-14T06:51:23;4.63;;;2.60;;
11943;SDS011;6031;50.220;10.122;2023-06-14T06:53:52;4.83;;;2.97;;
11943;SDS011;6031;50.220;10.122;2023-06-14T06:56:19;4.63;;;3.10;;
11943;SDS011;6031;50.220;10.122;2023-06-14T06:58:44;4.03;;;2.83;;
11943;SDS011;6031;50.220;10.122;2023-06-14T07:01:10;2.97;;;2.70;;
11943;SDS011;6031;50.220;10.122;2023-06-14T07:03:36;3.90;;;2.50;;
11943;SDS011;6031;50.220;10.122;2023-06-14T07:06:02;4.07;;;3.10;;
11943;SDS011;6031;50.220;10.122;2023-06-14T07:08:27;7.17;;;3.17;;
11943;SDS011;6031;50.220;10.122;2023-06-14T07:10:53;4.90;;;2.80;;
11943;SDS011;6031;50.220;10.122;2023-06-14T07:13:18;4.17;;;2.77;;
11943;SDS011;6031;50.220;10.122;2023-06-14T07:15:44;2.90;;;2.47;;
11943;SDS011;6031;50.220;10.122;2023-06-14T07:18:09;3.97;;;3.07;;
11943;SDS011;6031;50.220;10.122;2023-06-14T07:20:35;2.53;;;2.33;;
11943;SDS011;6031;50.220;10.122;2023-06-14T07:23:03;3.27;;;2.63;;
11943;SDS011;6031;50.220;10.122;2023-06-14T07:25:28;6.13;;;2.97;;
11943;SDS011;6031;50.220;10.122;2023-06-14T07:27:54;3.10;;;2.80;;
11943;SDS011;6031;50.220;10.122;2023-06-14T07:30:20;3.80;;;2.40;;
11943;SDS011;6031;50.220;10.122;2023-06-14T07:32:45;3.13;;;2.83;;
11943;SDS011;6031;50.220;10.122;2023-06-14T07:35:11;7.03;;;3.83;;
11943;SDS011;6031;50.220;10.122;2023-06-14T07:37:37;3.63;;;2.67;;
11943;SDS011;6031;50.220;10.122;2023-06-14T07:40:02;2.63;;;2.40;;
11943;SDS011;6031;50.220;10.122;2023-06-14T07:42:32;5.33;;;3.23;;
11943;SDS011;6031;50.220;10.122;2023-06-14T07:45:01;3.00;;;2.80;;
11943;SDS011;6031;50.220;10.122;2023-06-14T07:47:27;3.23;;;2.70;;
11943;SDS011;6031;50.220;10.122;2023-06-14T07:49:52;4.77;;;2.90;;
11943;SDS011;6031;50.220;10.122;2023-06-14T07:52:18;5.37;;;2.93;;
11943;SDS011;6031;50.220;10.122;2023-06-14T07:54:43;8.93;;;2.83;;
11943;SDS011;6031;50.220;10.122;2023-06-14T07:57:09;2.60;;;2.40;;
11943;SDS011;6031;50.220;10.122;2023-06-14T07:59:35;2.97;;;2.77;;
11943;SDS011;6031;50.220;10.122;2023-06-14T08:02:00;3.70;;;3.40;;
11943;SDS011;6031;50.220;10.122;2023-06-14T08:04:26;2.60;;;2.40;;
11943;SDS011;6031;50.220;10.122;2023-06-14T08:06:52;3.63;;;2.40;;
11943;SDS011;6031;50.220;10.122;2023-06-14T08:09:17;3.23;;;2.53;;
11943;SDS011;6031;50.220;10.122;2023-06-14T08:11:43;3.73;;;2.70;;
11943;SDS011;6031;50.220;10.122;2023-06-14T08:14:08;3.43;;;2.70;;
11943;SDS011;6031;50.220;10.122;2023-06-14T08:16:34;4.20;;;2.87;;
11943;SDS011;6031;50.220;10.122;2023-06-14T08:18:59;3.10;;;2.80;;
11943;SDS011;6031;50.220;10.122;2023-06-14T08:21:25;3.53;;;2.70;;
11943;SDS011;6031;50.220;10.122;2023-06-14T08:23:53;3.03;;;2.37;;
11943;SDS011;6031;50.220;10.122;2023-06-14T08:26:22;3.70;;;2.50;;
11943;SDS011;6031;50.220;10.122;2023-06-14T08:28:48;3.10;;;2.80;;
11943;SDS011;6031;50.220;10.122;2023-06-14T08:31:13;4.57;;;2.70;;
11943;SDS011;6031;50.220;10.122;2023-06-14T08:33:39;3.63;;;2.40;;
11943;SDS011;6031;50.220;10.122;2023-06-14T08:36:08;3.50;;;2.70;;
11943;SDS011;6031;50.220;10.122;2023-06-14T08:38:33;3.70;;;2.07;;
11943;SDS011;6031;50.220;10.122;2023-06-14T08:40:59;3.47;;;2.40;;
11943;SDS011;6031;50.220;10.122;2023-06-14T08:43:27;3.00;;;2.70;;
11943;SDS011;6031;50.220;10.122;2023-06-14T08:45:58;6.47;;;2.70;;
11943;SDS011;6031;50.220;10.122;2023-06-14T08:48:26;2.60;;;2.40;;
11943;SDS011;6031;50.220;10.122;2023-06-14T08:50:51;3.03;;;2.57;;
11943;SDS011;6031;50.220;10.122;2023-06-14T08:53:27;1.97;;;1.83;;
11943;SDS011;6031;50.220;10.122;2023-06-14T08:55:56;5.70;;;2.33;;
11943;SDS011;6031;50.220;10.122;2023-06-14T08:58:25;5.20;;;2.83;;
11943;SDS011;6031;50.220;10.122;2023-06-14T09:00:51;2.20;;;1.97;;
11943;SDS011;6031;50.220;10.122;2023-06-14T09:03:17;3.30;;;2.50;;
11943;SDS011;6031;50.220;10.122;2023-06-14T09:05:45;1.87;;;1.73;;
11943;SDS011;6031;50.220;10.122;2023-06-14T09:08:12;2.47;;;2.27;;
11943;SDS011;6031;50.220;10.122;2023-06-14T09:10:37;2.00;;;1.90;;
11943;SDS011;6031;50.220;10.122;2023-06-14T09:13:05;2.57;;;2.30;;
11943;SDS011;6031;50.220;10.122;2023-06-14T09:15:32;3.67;;;2.20;;
11943;SDS011;6031;50.220;10.122;2023-06-14T09:18:00;2.73;;;1.80;;
11943;SDS011;6031;50.220;10.122;2023-06-14T09:20:26;2.27;;;2.13;;
11943;SDS011;6031;50.220;10.122;2023-06-14T09:22:55;2.40;;;2.07;;
11943;SDS011;6031;50.220;10.122;2023-06-14T09:25:20;3.03;;;2.20;;
11943;SDS011;6031;50.220;10.122;2023-06-14T09:27:47;2.17;;;1.90;;
11943;SDS011;6031;50.220;10.122;2023-06-14T09:30:13;2.63;;;2.40;;
11943;SDS011;6031;50.220;10.122;2023-06-14T09:32:39;4.80;;;2.10;;
11943;SDS011;6031;50.220;10.122;2023-06-14T09:35:08;1.90;;;1.73;;
11943;SDS011;6031;50.220;10.122;2023-06-14T09:37:34;3.07;;;1.70;;
11943;SDS011;6031;50.220;10.122;2023-06-14T09:40:00;2.27;;;2.07;;
11943;SDS011;6031;50.220;10.122;2023-06-14T09:42:28;2.90;;;2.07;;
11943;SDS011;6031;50.220;10.122;2023-06-14T09:44:55;6.17;;;2.33;;
11943;SDS011;6031;50.220;10.122;2023-06-14T09:47:21;3.30;;;1.67;;
11943;SDS011;6031;50.220;10.122;2023-06-14T09:49:50;4.67;;;2.40;;
11943;SDS011;6031;50.220;10.122;2023-06-14T09:52:17;3.03;;;1.90;;
11943;SDS011;6031;50.220;10.122;2023-06-14T09:54:44;4.00;;;1.80;;
11943;SDS011;6031;50.220;10.122;2023-06-14T09:57:12;2.17;;;2.07;;
11943;SDS011;6031;50.220;10.122;2023-06-14T09:59:43;2.20;;;2.00;;
11943;SDS011;6031;50.220;10.122;2023-06-14T10:02:34;1.97;;;1.87;;
11943;SDS011;6031;50.220;10.122;2023-06-14T10:07:30;2.10;;;1.90;;
11943;SDS011;6031;50.220;10.122;2023-06-14T10:10:05;1.67;;;1.57;;
11943;SDS011;6031;50.220;10.122;2023-06-14T10:12:32;3.03;;;1.93;;
11943;SDS011;6031;50.220;10.122;2023-06-14T10:14:57;1.77;;;1.67;;
11943;SDS011;6031;50.220;10.122;2023-06-14T10:20:21;1.83;;;1.73;;
11943;SDS011;6031;50.220;10.122;2023-06-14T10:23:21;2.83;;;1.83;;
11943;SDS011;6031;50.220;10.122;2023-06-14T10:25:56;2.63;;;2.20;;
11943;SDS011;6031;50.220;10.122;2023-06-14T10:28:22;3.73;;;1.97;;
11943;SDS011;6031;50.220;10.122;2023-06-14T10:33:32;2.43;;;2.27;;
11943;SDS011;6031;50.220;10.122;2023-06-14T10:39:25;2.40;;;2.30;;
11943;SDS011;6031;50.220;10.122;2023-06-14T10:41:54;2.40;;;1.93;;
11943;SDS011;6031;50.220;10.122;2023-06-14T10:46:46;4.20;;;2.10;;
11943;SDS011;6031;50.220;10.122;2023-06-14T10:49:12;2.63;;;1.83;;
11943;SDS011;6031;50.220;10.122;2023-06-14T10:51:44;1.83;;;1.73;;
11943;SDS011;6031;50.220;10.122;2023-06-14T10:54:14;2.60;;;1.77;;
11943;SDS011;6031;50.220;10.122;2023-06-14T10:56:47;2.10;;;1.57;;
11943;SDS011;6031;50.220;10.122;2023-06-14T10:59:14;2.10;;;2.00;;
11943;SDS011;6031;50.220;10.122;2023-06-14T11:04:14;1.83;;;1.57;;
11943;SDS011;6031;50.220;10.122;2023-06-14T11:06:49;2.33;;;1.80;;
11943;SDS011;6031;50.220;10.122;2023-06-14T11:12:09;3.10;;;2.03;;
11943;SDS011;6031;50.220;10.122;2023-06-14T11:14:36;3.63;;;2.00;;
11943;SDS011;6031;50.220;10.122;2023-06-14T11:17:03;5.03;;;1.97;;
11943;SDS011;6031;50.220;10.122;2023-06-14T11:19:29;2.33;;;1.93;;
11943;SDS011;6031;50.220;10.122;2023-06-14T11:21:55;3.30;;;2.30;;
11943;SDS011;6031;50.220;10.122;2023-06-14T11:24:20;3.83;;;2.07;;
11943;SDS011;6031;50.220;10.122;2023-06-14T11:26:46;2.63;;;1.53;;
11943;SDS011;6031;50.220;10.122;2023-06-14T11:29:12;3.30;;;2.03;;
11943;SDS011;6031;50.220;10.122;2023-06-14T11:31:42;2.83;;;2.30;;
11943;SDS011;6031;50.220;10.122;2023-06-14T11:34:09;2.80;;;1.90;;
11943;SDS011;6031;50.220;10.122;2023-06-14T11:36:35;2.87;;;1.83;;
11943;SDS011;6031;50.220;10.122;2023-06-14T11:39:02;2.67;;;1.60;;
11943;SDS011;6031;50.220;10.122;2023-06-14T11:44:04;2.23;;;2.13;;
11943;SDS011;6031;50.220;10.122;2023-06-14T11:46:30;3.30;;;2.17;;
11943;SDS011;6031;50.220;10.122;2023-06-14T11:48:56;3.17;;;2.00;;
11943;SDS011;6031;50.220;10.122;2023-06-14T11:51:22;1.97;;;1.87;;
11943;SDS011;6031;50.220;10.122;2023-06-14T11:53:47;2.10;;;2.00;;
11943;SDS011;6031;50.220;10.122;2023-06-14T11:56:13;2.57;;;2.03;;
11943;SDS011;6031;50.220;10.122;2023-06-14T11:58:39;2.90;;;2.00;;
11943;SDS011;6031;50.220;10.122;2023-06-14T12:01:05;2.00;;;1.90;;
11943;SDS011;6031;50.220;10.122;2023-06-14T12:03:30;3.03;;;2.07;;
11943;SDS011;6031;50.220;10.122;2023-06-14T12:06:05;2.07;;;1.90;;
11943;SDS011;6031;50.220;10.122;2023-06-14T12:08:35;3.93;;;2.10;;
11943;SDS011;6031;50.220;10.122;2023-06-14T12:11:11;1.63;;;1.53;;
11943;SDS011;6031;50.220;10.122;2023-06-14T12:13:39;1.80;;;1.50;;
11943;SDS011;6031;50.220;10.122;2023-06-14T12:16:11;4.70;;;2.60;;
11943;SDS011;6031;50.220;10.122;2023-06-14T12:18:38;2.27;;;2.10;;
11943;SDS011;6031;50.220;10.122;2023-06-14T12:21:06;2.17;;;2.07;;
11943;SDS011;6031;50.220;10.122;2023-06-14T12:23:38;2.10;;;1.80;;
11943;SDS011;6031;50.220;10.122;2023-06-14T12:26:08;3.33;;;2.10;;
11943;SDS011;6031;50.220;10.122;2023-06-14T12:28:33;1.77;;;1.67;;
11943;SDS011;6031;50.220;10.122;2023-06-14T12:30:59;2.47;;;2.07;;
11943;SDS011;6031;50.220;10.122;2023-06-14T12:33:24;1.83;;;1.73;;
11943;SDS011;6031;50.220;10.122;2023-06-14T12:35:50;2.40;;;1.90;;
11943;SDS011;6031;50.220;10.122;2023-06-14T12:38:19;2.23;;;2.13;;
11943;SDS011;6031;50.220;10.122;2023-06-14T12:40:46;3.03;;;2.20;;
11943;SDS011;6031;50.220;10.122;2023-06-14T12:43:11;2.07;;;1.97;;
11943;SDS011;6031;50.220;10.122;2023-06-14T12:45:37;2.30;;;2.10;;
11943;SDS011;6031;50.220;10.122;2023-06-14T12:48:03;4.03;;;2.10;;
11943;SDS011;6031;50.220;10.122;2023-06-14T12:50:28;4.70;;;2.43;;
11943;SDS011;6031;50.220;10.122;2023-06-14T12:52:54;2.50;;;2.37;;
11943;SDS011;6031;50.220;10.122;2023-06-14T12:55:19;3.47;;;2.53;;
11943;SDS011;6031;50.220;10.122;2023-06-14T12:57:45;2.47;;;2.27;;
11943;SDS011;6031;50.220;10.122;2023-06-14T13:00:11;2.40;;;2.20;;
11943;SDS011;6031;50.220;10.122;2023-06-14T13:02:37;2.60;;;1.90;;
11943;SDS011;6031;50.220;10.122;2023-06-14T13:05:03;5.10;;;2.07;;
11943;SDS011;6031;50.220;10.122;2023-06-14T13:07:29;3.07;;;2.27;;
11943;SDS011;6031;50.220;10.122;2023-06-14T13:09:55;2.70;;;2.10;;
11943;SDS011;6031;50.220;10.122;2023-06-14T13:12:20;2.17;;;2.00;;
11943;SDS011;6031;50.220;10.122;2023-06-14T13:14:46;2.20;;;2.00;;
11943;SDS011;6031;50.220;10.122;2023-06-14T13:17:11;2.00;;;1.90;;
11943;SDS011;6031;50.220;10.122;2023-06-14T13:19:37;3.33;;;2.10;;
11943;SDS011;6031;50.220;10.122;2023-06-14T13:22:02;2.30;;;2.10;;
11943;SDS011;6031;50.220;10.122;2023-06-14T13:24:29;2.07;;;1.97;;
11943;SDS011;6031;50.220;10.122;2023-06-14T13:26:55;2.27;;;2.17;;
11943;SDS011;6031;50.220;10.122;2023-06-14T13:29:22;2.80;;;2.60;;
11943;SDS011;6031;50.220;10.122;2023-06-14T13:31:48;2.23;;;2.03;;
11943;SDS011;6031;50.220;10.122;2023-06-14T13:34:14;2.20;;;2.10;;
11943;SDS011;6031;50.220;10.122;2023-06-14T13:36:39;3.03;;;2.13;;
11943;SDS011;6031;50.220;10.122;2023-06-14T13:39:05;2.08;;;1.98;;
11943;SDS011;6031;50.220;10.122;2023-06-14T13:41:31;1.60;;;1.50;;
11943;SDS011;6031;50.220;10.122;2023-06-14T13:43:59;1.70;;;1.60;;
11943;SDS011;6031;50.220;10.122;2023-06-14T13:46:25;1.85;;;1.75;;
11943;SDS011;6031;50.220;10.122;2023-06-14T13:48:51;1.93;;;1.83;;
11943;SDS011;6031;50.220;10.122;2023-06-14T13:51:16;2.05;;;1.92;;
11943;SDS011;6031;50.220;10.122;2023-06-14T13:53:45;3.70;;;1.90;;
11943;SDS011;6031;50.220;10.122;2023-06-14T13:56:12;3.47;;;2.40;;
11943;SDS011;6031;50.220;10.122;2023-06-14T13:58:37;1.90;;;1.80;;
11943;SDS011;6031;50.220;10.122;2023-06-14T14:01:03;2.40;;;2.20;;
11943;SDS011;6031;50.220;10.122;2023-06-14T14:03:28;2.10;;;1.90;;
11943;SDS011;6031;50.220;10.122;2023-06-14T14:05:54;3.93;;;2.10;;
11943;SDS011;6031;50.220;10.122;2023-06-14T14:08:19;3.20;;;2.63;;
11943;SDS011;6031;50.220;10.122;2023-06-14T14:10:45;3.13;;;2.60;;
11943;SDS011;6031;50.220;10.122;2023-06-14T14:13:12;3.17;;;2.20;;
11943;SDS011;6031;50.220;10.122;2023-06-14T14:15:38;2.00;;;1.90;;
11943;SDS011;6031;50.220;10.122;2023-06-14T14:18:03;2.50;;;2.30;;
11943;SDS011;6031;50.220;10.122;2023-06-14T14:20:30;2.53;;;2.33;;
11943;SDS011;6031;50.220;10.122;2023-06-14T14:22:56;2.13;;;2.00;;
11943;SDS011;6031;50.220;10.122;2023-06-14T14:25:21;2.50;;;2.30;;
11943;SDS011;6031;50.220;10.122;2023-06-14T14:27:47;3.10;;;2.20;;
11943;SDS011;6031;50.220;10.122;2023-06-14T14:30:12;2.87;;;2.17;;
11943;SDS011;6031;50.220;10.122;2023-06-14T14:32:39;2.80;;;2.60;;
11943;SDS011;6031;50.220;10.122;2023-06-14T14:35:05;2.27;;;1.97;;
11943;SDS011;6031;50.220;10.122;2023-06-14T14:37:31;2.30;;;2.10;;
11943;SDS011;6031;50.220;10.122;2023-06-14T14:39:57;2.20;;;2.00;;
11943;SDS011;6031;50.220;10.122;2023-06-14T14:42:22;3.90;;;2.30;;
11943;SDS011;6031;50.220;10.122;2023-06-14T14:44:48;2.17;;;2.00;;
11943;SDS011;6031;50.220;10.122;2023-06-14T14:47:14;2.60;;;2.40;;
11943;SDS011;6031;50.220;10.122;2023-06-14T14:49:39;3.60;;;2.17;;
11943;SDS011;6031;50.220;10.122;2023-06-14T14:52:05;3.40;;;2.13;;
11943;SDS011;6031;50.220;10.122;2023-06-14T14:54:30;3.63;;;2.20;;
11943;SDS011;6031;50.220;10.122;2023-06-14T14:56:56;2.23;;;1.90;;
11943;SDS011;6031;50.220;10.122;2023-06-14T14:59:21;2.13;;;1.92;;
11943;SDS011;6031;50.220;10.122;2023-06-14T15:01:47;2.53;;;2.33;;
11943;SDS011;6031;50.220;10.122;2023-06-14T15:04:13;4.63;;;2.28;;
11943;SDS011;6031;50.220;10.122;2023-06-14T15:06:38;3.38;;;2.50;;